Time;durP1;ratioP1;P1;durP2;ratioP2;P2;SDS_P1;SDS_P2;PMS_P1;PMS_P2;Temp;Humidity;BMP_temperature;BMP_pressure;BME280_temperature;BME280_humidity;BME280_pressure;Samples;Min_cycle;Max_cycle;Signal;HPM_P1;HPM_P2
2021/11/14 00:01:05;;;;;;;14.63;8.53;;;7.90;99.90;;;;;;4164099;28;20487;-79
2021/11/14 00:03:08;;;;;;;12.87;8.10;;;7.90;99.90;;;;;;4160466;28;20944;-79
2021/11/14 00:05:11;;;;;;;15.10;8.80;;;7.90;99.90;;;;;;4164184;28;20515;-79
2021/11/14 00:07:13;;;;;;;13.97;8.60;;;7.90;99.90;;;;;;4162146;28;20508;-78
2021/11/14 00:09:16;;;;;;;14.53;8.40;;;7.90;99.90;;;;;;4166340;28;20481;-78
2021/11/14 00:11:20;;;;;;;15.63;8.63;;;7.90;99.90;;;;;;4165561;28;20475;-78
2021/11/14 00:13:22;;;;;;;15.40;8.77;;;7.90;99.90;;;;;;4168045;28;20466;-79
2021/11/14 00:15:25;;;;;;;14.90;8.27;;;7.90;99.90;;;;;;4165643;28;20484;-78
2021/11/14 00:17:26;;;;;;;13.40;8.27;;;7.90;99.90;;;;;;4165805;28;20489;-79
2021/11/14 00:19:28;;;;;;;15.37;8.40;;;7.90;99.90;;;;;;4167070;28;20449;-78
2021/11/14 00:21:35;;;;;;;15.27;9.20;;;7.90;99.90;;;;;;4168623;28;20866;-78
2021/11/14 00:23:37;;;;;;;14.07;8.63;;;8.00;99.90;;;;;;4165792;28;20877;-78
2021/11/14 00:25:39;;;;;;;15.37;9.37;;;7.90;99.90;;;;;;4166287;28;20532;-78
2021/11/14 00:27:41;;;;;;;15.90;9.13;;;8.00;99.90;;;;;;4173207;28;20534;-79
2021/11/14 00:29:43;;;;;;;13.47;8.47;;;7.90;99.90;;;;;;4171139;28;20523;-79
2021/11/14 00:31:44;;;;;;;13.53;8.13;;;7.90;99.90;;;;;;4172844;28;20457;-79
2021/11/14 00:33:48;;;;;;;15.73;8.77;;;7.90;99.90;;;;;;4170229;28;20476;-78
2021/11/14 00:35:52;;;;;;;13.80;8.30;;;7.90;99.90;;;;;;4169207;28;20476;-78
2021/11/14 00:37:55;;;;;;;14.00;8.60;;;7.90;99.90;;;;;;4172897;28;20473;-79
2021/11/14 00:39:57;;;;;;;13.93;7.80;;;7.90;99.90;;;;;;4171258;28;20462;-78
2021/11/14 00:41:58;;;;;;;14.23;8.47;;;7.90;99.90;;;;;;4174597;28;20465;-79
2021/11/14 00:44:00;;;;;;;16.10;9.37;;;7.90;99.90;;;;;;4175794;28;20450;-79
2021/11/14 00:46:04;;;;;;;15.93;8.27;;;7.90;99.90;;;;;;4177471;28;20460;-79
2021/11/14 00:48:06;;;;;;;13.67;8.80;;;7.90;99.90;;;;;;4176244;28;20456;-80
2021/11/14 00:50:11;;;;;;;15.63;8.57;;;7.90;99.90;;;;;;4173235;28;20495;-79
2021/11/14 00:52:12;;;;;;;11.73;7.47;;;7.90;99.90;;;;;;4169361;28;20464;-79
2021/11/14 00:54:16;;;;;;;13.80;8.23;;;7.90;99.90;;;;;;4165525;28;20458;-80
2021/11/14 00:56:18;;;;;;;14.03;8.73;;;7.90;99.90;;;;;;4163530;28;20947;-80
2021/11/14 00:58:20;;;;;;;13.60;8.27;;;7.90;99.90;;;;;;4166218;28;20949;-80
2021/11/14 01:00:28;;;;;;;14.10;8.20;;;7.90;99.90;;;;;;4163033;28;20954;-79
2021/11/14 01:02:30;;;;;;;15.37;8.83;;;7.90;99.90;;;;;;4164004;28;21378;-79
2021/11/14 01:04:31;;;;;;;15.03;8.90;;;7.90;99.90;;;;;;4163916;28;20449;-79
2021/11/14 01:06:33;;;;;;;14.67;8.57;;;7.90;99.90;;;;;;4164205;28;20471;-79
2021/11/14 01:08:35;;;;;;;16.10;8.60;;;7.80;99.90;;;;;;4166223;28;20501;-80
2021/11/14 01:10:41;;;;;;;14.30;7.97;;;7.90;99.90;;;;;;4162926;28;20508;-79
2021/11/14 01:12:44;;;;;;;17.17;8.90;;;7.90;99.90;;;;;;4163224;28;20484;-79
2021/11/14 01:14:46;;;;;;;16.93;8.40;;;7.80;99.90;;;;;;4163592;28;20470;-80
2021/11/14 01:16:48;;;;;;;14.33;8.77;;;7.90;99.90;;;;;;4162957;28;20508;-78
2021/11/14 01:18:49;;;;;;;15.40;8.53;;;7.90;99.90;;;;;;4166195;28;21010;-80
2021/11/14 01:20:55;;;;;;;15.10;9.27;;;7.90;99.90;;;;;;4165632;28;20926;-80
2021/11/14 01:22:58;;;;;;;15.53;9.03;;;7.90;99.90;;;;;;4163502;28;20492;-80
2021/11/14 01:25:00;;;;;;;13.57;8.47;;;7.60;99.90;;;;;;4164551;28;20872;-79
2021/11/14 01:27:04;;;;;;;13.53;8.17;;;7.90;99.90;;;;;;4164057;28;20504;-79
2021/11/14 01:29:05;;;;;;;13.87;8.13;;;7.90;99.90;;;;;;4165190;28;21048;-80
2021/11/14 01:31:07;;;;;;;12.93;8.23;;;8.00;99.90;;;;;;4160677;28;20480;-80
2021/11/14 01:33:11;;;;;;;13.57;8.07;;;7.90;99.90;;;;;;4163694;28;20473;-80
2021/11/14 01:35:14;;;;;;;15.00;8.53;;;7.90;99.90;;;;;;4150750;28;20469;-80
2021/11/14 01:37:16;;;;;;;14.23;8.20;;;7.90;99.90;;;;;;4150960;28;20462;-79
2021/11/14 01:39:18;;;;;;;16.77;8.67;;;7.90;99.90;;;;;;4165871;28;20527;-80
2021/11/14 01:41:20;;;;;;;16.87;8.73;;;7.90;99.90;;;;;;4166131;28;20469;-80
2021/11/14 01:43:25;;;;;;;15.13;8.83;;;7.90;99.90;;;;;;4166400;28;20478;-80
2021/11/14 01:45:29;;;;;;;15.57;9.23;;;7.90;99.90;;;;;;4166054;28;20535;-80
2021/11/14 01:47:31;;;;;;;13.00;8.27;;;7.90;99.90;;;;;;4164476;28;20458;-79
2021/11/14 01:49:33;;;;;;;13.23;7.80;;;7.90;99.90;;;;;;4166821;28;20449;-79
2021/11/14 01:51:35;;;;;;;13.40;8.67;;;7.90;99.90;;;;;;4166322;28;20492;-79
2021/11/14 01:53:38;;;;;;;13.50;8.33;;;7.90;99.90;;;;;;4163334;28;20466;-79
2021/11/14 01:55:43;;;;;;;16.07;8.70;;;7.90;99.90;;;;;;4159730;28;20482;-79
2021/11/14 01:57:45;;;;;;;12.50;8.27;;;7.90;99.90;;;;;;4165239;28;20461;-79
2021/11/14 01:59:49;;;;;;;14.43;8.30;;;7.90;99.90;;;;;;4159831;28;20510;-79
2021/11/14 02:01:52;;;;;;;13.63;8.53;;;7.90;99.90;;;;;;4163615;28;20453;-80
2021/11/14 02:03:58;;;;;;;15.43;8.40;;;7.90;99.90;;;;;;4154993;28;20472;-79
2021/11/14 02:06:02;;;;;;;15.63;9.00;;;7.90;99.90;;;;;;4160490;28;20465;-79
2021/11/14 02:08:06;;;;;;;15.40;8.40;;;7.90;99.90;;;;;;4159676;28;20504;-79
2021/11/14 02:10:10;;;;;;;14.30;8.17;;;7.90;99.90;;;;;;4157198;28;20482;-79
2021/11/14 02:14:15;;;;;;;13.93;8.50;;;7.90;99.90;;;;;;4148538;28;20482;-82
2021/11/14 02:16:22;;;;;;;15.37;8.67;;;7.90;99.90;;;;;;4149623;28;20828;-83
2021/11/14 02:18:24;;;;;;;16.37;8.63;;;7.90;99.90;;;;;;4148346;28;20497;-83
2021/11/14 02:20:28;;;;;;;14.37;8.23;;;7.90;99.90;;;;;;4143558;28;20909;-83
2021/11/14 02:22:29;;;;;;;14.30;8.20;;;8.20;99.90;;;;;;4141682;28;20470;-82
2021/11/14 02:24:31;;;;;;;15.17;9.10;;;7.90;99.90;;;;;;4149151;28;20967;-82
2021/11/14 02:26:33;;;;;;;13.47;8.50;;;7.90;99.90;;;;;;4149484;28;20462;-82
2021/11/14 02:28:35;;;;;;;11.77;7.80;;;7.90;99.90;;;;;;4149051;28;20458;-82
2021/11/14 02:30:38;;;;;;;13.27;8.40;;;8.00;99.90;;;;;;4135254;28;20490;-82
2021/11/14 02:32:40;;;;;;;14.23;8.23;;;7.90;99.90;;;;;;4141162;28;20537;-83
2021/11/14 02:34:42;;;;;;;13.57;7.70;;;7.90;99.90;;;;;;4149516;28;20454;-82
2021/11/14 02:36:45;;;;;;;13.63;8.20;;;7.90;99.90;;;;;;4149132;28;20462;-83
2021/11/14 02:38:47;;;;;;;14.00;8.67;;;8.00;99.90;;;;;;4149483;28;20463;-82
2021/11/14 02:40:50;;;;;;;14.20;7.97;;;7.90;99.90;;;;;;4149276;28;20489;-82
2021/11/14 02:42:52;;;;;;;12.87;8.47;;;8.00;99.90;;;;;;4148931;28;20543;-83
2021/11/14 02:44:54;;;;;;;13.57;7.80;;;8.00;99.90;;;;;;4149844;28;20455;-82
2021/11/14 02:46:57;;;;;;;14.70;8.57;;;8.00;99.90;;;;;;4149631;28;20492;-82
2021/11/14 02:48:58;;;;;;;12.30;8.03;;;8.00;99.90;;;;;;4150423;28;20520;-82
2021/11/14 02:51:02;;;;;;;13.90;8.30;;;7.90;99.90;;;;;;4148694;28;20916;-83
2021/11/14 02:53:07;;;;;;;13.83;8.67;;;7.90;99.90;;;;;;4147402;28;20482;-82
2021/11/14 02:55:12;;;;;;;13.57;8.47;;;8.00;99.90;;;;;;4144381;28;20485;-83
2021/11/14 02:57:13;;;;;;;16.07;8.63;;;8.10;99.90;;;;;;4150499;28;20481;-82
2021/11/14 02:59:15;;;;;;;14.83;8.30;;;8.00;99.90;;;;;;4145151;28;20684;-82
2021/11/14 03:01:20;;;;;;;13.63;7.97;;;8.30;99.90;;;;;;4149890;28;20470;-83
2021/11/14 03:03:24;;;;;;;15.43;8.80;;;8.20;99.90;;;;;;4149731;28;20475;-82
2021/11/14 03:05:26;;;;;;;14.73;8.63;;;7.90;99.90;;;;;;4149903;28;20471;-82
2021/11/14 03:07:30;;;;;;;14.07;8.77;;;8.00;99.90;;;;;;4150068;28;20462;-82
2021/11/14 03:09:35;;;;;;;14.47;8.63;;;7.90;99.90;;;;;;4149708;28;20478;-82
2021/11/14 03:11:37;;;;;;;14.80;8.13;;;8.00;99.90;;;;;;4149437;28;20919;-82
2021/11/14 03:13:39;;;;;;;16.27;8.90;;;7.90;99.90;;;;;;4149564;28;20503;-82
2021/11/14 03:15:43;;;;;;;13.27;7.80;;;7.90;99.90;;;;;;4149445;28;20468;-83
2021/11/14 03:17:45;;;;;;;12.97;8.20;;;8.00;99.90;;;;;;4150778;28;20466;-82
2021/11/14 03:19:47;;;;;;;13.83;8.50;;;8.00;99.90;;;;;;4150309;28;20878;-82
2021/11/14 03:21:49;;;;;;;14.00;8.53;;;7.90;99.90;;;;;;4148907;28;20477;-82
2021/11/14 03:23:51;;;;;;;14.30;8.67;;;8.00;99.90;;;;;;4141333;28;20471;-82
2021/11/14 03:25:55;;;;;;;13.03;8.23;;;7.90;99.90;;;;;;4149641;28;20474;-82
2021/11/14 03:27:58;;;;;;;14.83;8.57;;;7.90;99.90;;;;;;4150140;28;20467;-82
2021/11/14 03:30:00;;;;;;;14.10;8.53;;;7.90;99.90;;;;;;4148343;28;20472;-82
2021/11/14 03:32:02;;;;;;;13.33;8.20;;;7.90;99.90;;;;;;4149530;28;20467;-82
2021/11/14 03:34:04;;;;;;;14.80;8.90;;;7.90;99.90;;;;;;4142940;28;20505;-82
2021/11/14 03:36:09;;;;;;;14.47;8.13;;;7.90;99.90;;;;;;4150969;28;20457;-82
2021/11/14 03:38:12;;;;;;;12.83;7.77;;;8.30;99.90;;;;;;4150381;28;20472;-82
2021/11/14 03:40:15;;;;;;;14.20;8.63;;;7.90;99.90;;;;;;4150036;28;20543;-82
2021/11/14 03:42:18;;;;;;;15.17;8.77;;;7.90;99.90;;;;;;4153612;28;20910;-82
2021/11/14 03:44:20;;;;;;;12.70;7.70;;;7.90;99.90;;;;;;4152592;28;20474;-82
2021/11/14 03:46:22;;;;;;;15.23;9.33;;;7.90;99.90;;;;;;4152685;28;20481;-82
2021/11/14 03:48:25;;;;;;;14.87;8.83;;;7.90;99.90;;;;;;4152788;28;20552;-83
2021/11/14 03:50:26;;;;;;;14.80;8.33;;;7.90;99.90;;;;;;4154130;28;20551;-82
2021/11/14 03:52:28;;;;;;;13.60;8.60;;;7.90;99.90;;;;;;4156567;28;20540;-82
2021/11/14 03:54:30;;;;;;;13.00;8.37;;;7.90;99.90;;;;;;4151343;28;20602;-82
2021/11/14 03:56:35;;;;;;;15.37;8.27;;;7.90;99.90;;;;;;4157841;28;20496;-82
2021/11/14 03:58:38;;;;;;;13.87;8.47;;;7.90;99.90;;;;;;4153704;28;20466;-82
2021/11/14 04:00:42;;;;;;;13.53;8.30;;;7.90;99.90;;;;;;4152252;28;20492;-82
2021/11/14 04:02:46;;;;;;;15.53;8.60;;;8.00;99.90;;;;;;4151884;28;20478;-82
2021/11/14 04:04:48;;;;;;;13.13;7.83;;;7.90;99.90;;;;;;4151733;28;20480;-82
2021/11/14 04:06:50;;;;;;;13.40;8.10;;;7.90;99.90;;;;;;4152236;28;20505;-82
2021/11/14 04:08:56;;;;;;;13.83;7.93;;;7.90;99.90;;;;;;4151860;28;20472;-82
2021/11/14 04:11:00;;;;;;;13.77;8.93;;;7.90;99.90;;;;;;4151614;28;20473;-82
2021/11/14 04:13:02;;;;;;;12.73;7.93;;;7.90;99.90;;;;;;4153320;28;20518;-82
2021/11/14 04:15:06;;;;;;;12.87;8.33;;;7.90;99.90;;;;;;4151643;28;20466;-82
2021/11/14 04:17:08;;;;;;;12.57;7.90;;;7.90;99.90;;;;;;4152915;28;20869;-82
2021/11/14 04:19:11;;;;;;;13.97;7.93;;;7.90;99.90;;;;;;4150518;28;20458;-82
2021/11/14 04:21:13;;;;;;;12.13;7.70;;;7.90;99.90;;;;;;4151051;28;20577;-82
2021/11/14 04:23:17;;;;;;;13.60;8.10;;;7.90;99.90;;;;;;4149419;28;20478;-82
2021/11/14 04:25:18;;;;;;;13.93;8.43;;;7.90;99.90;;;;;;4151168;28;20476;-82
2021/11/14 04:27:20;;;;;;;14.37;8.60;;;7.90;99.90;;;;;;4150597;28;20539;-82
2021/11/14 04:29:22;;;;;;;13.00;8.00;;;7.90;99.90;;;;;;4150473;28;20454;-82
2021/11/14 04:31:25;;;;;;;14.50;8.40;;;7.90;99.90;;;;;;4146513;28;20765;-82
2021/11/14 04:33:27;;;;;;;14.13;8.27;;;7.90;99.90;;;;;;4151368;28;20478;-82
2021/11/14 04:35:29;;;;;;;12.33;8.00;;;7.90;99.90;;;;;;4151437;28;20478;-81
2021/11/14 04:37:31;;;;;;;12.90;8.30;;;7.90;99.90;;;;;;4151929;28;20455;-82
2021/11/14 04:39:32;;;;;;;14.07;8.10;;;7.90;99.90;;;;;;4150846;28;20943;-82
2021/11/14 04:41:34;;;;;;;13.17;8.07;;;7.90;99.90;;;;;;4151966;28;20466;-82
2021/11/14 04:43:36;;;;;;;13.87;8.03;;;7.90;99.90;;;;;;4151083;28;20486;-82
2021/11/14 04:45:38;;;;;;;12.63;7.83;;;8.00;99.90;;;;;;4151657;28;20519;-82
2021/11/14 04:47:42;;;;;;;15.03;9.10;;;7.90;99.90;;;;;;4150474;28;20490;-82
2021/11/14 04:49:43;;;;;;;13.07;8.33;;;7.90;99.90;;;;;;4149311;28;20481;-82
2021/11/14 04:51:45;;;;;;;13.53;8.23;;;7.90;99.90;;;;;;4151145;28;20493;-82
2021/11/14 04:53:47;;;;;;;13.40;8.67;;;7.90;99.90;;;;;;4151253;28;20548;-80
2021/11/14 04:55:49;;;;;;;12.27;7.53;;;7.80;99.90;;;;;;4148627;28;20512;-80
2021/11/14 04:57:51;;;;;;;12.20;7.67;;;7.90;99.90;;;;;;4139980;28;20489;-80
2021/11/14 04:59:53;;;;;;;14.60;8.03;;;7.80;99.90;;;;;;4144164;28;20918;-81
2021/11/14 05:01:55;;;;;;;12.97;8.43;;;7.80;99.90;;;;;;4148054;28;20486;-79
2021/11/14 05:03:58;;;;;;;11.30;7.20;;;7.90;99.90;;;;;;4157327;28;20495;-80
2021/11/14 05:06:00;;;;;;;13.57;8.30;;;7.90;99.90;;;;;;4149858;28;20717;-82
2021/11/14 05:08:01;;;;;;;13.50;8.37;;;8.00;99.90;;;;;;4149253;28;20453;-83
2021/11/14 05:10:04;;;;;;;14.47;8.30;;;7.80;99.90;;;;;;4148377;28;20474;-83
2021/11/14 05:12:07;;;;;;;14.47;8.20;;;7.90;99.90;;;;;;4148937;28;21011;-83
2021/11/14 05:14:09;;;;;;;12.43;7.57;;;7.90;99.90;;;;;;4147777;28;20898;-83
2021/11/14 05:16:11;;;;;;;14.63;8.20;;;7.80;99.90;;;;;;4149848;28;20455;-82
2021/11/14 05:18:13;;;;;;;15.53;7.90;;;7.80;99.90;;;;;;4148315;28;20478;-83
2021/11/14 05:20:16;;;;;;;14.63;8.77;;;7.90;99.90;;;;;;4147896;28;20457;-83
2021/11/14 05:22:18;;;;;;;12.60;7.90;;;8.10;99.90;;;;;;4140538;28;20551;-83
2021/11/14 05:24:19;;;;;;;14.27;8.53;;;7.80;99.90;;;;;;4148953;28;20724;-83
2021/11/14 05:26:21;;;;;;;15.53;9.07;;;7.80;99.90;;;;;;4149191;28;20466;-83
2021/11/14 05:28:23;;;;;;;14.40;8.50;;;7.80;99.90;;;;;;4147976;28;20939;-83
2021/11/14 05:30:25;;;;;;;15.00;7.93;;;7.80;99.90;;;;;;4145562;28;20470;-83
2021/11/14 05:32:27;;;;;;;13.50;7.90;;;7.80;99.90;;;;;;4147966;28;20526;-83
2021/11/14 05:34:29;;;;;;;14.60;8.97;;;7.80;99.90;;;;;;4149253;28;20966;-83
2021/11/14 05:36:32;;;;;;;13.07;7.93;;;7.80;99.90;;;;;;4149291;28;20455;-83
2021/11/14 05:38:34;;;;;;;12.23;7.80;;;7.80;99.90;;;;;;4149566;28;20467;-82
2021/11/14 05:40:36;;;;;;;13.33;7.93;;;7.80;99.90;;;;;;4148604;28;20878;-83
2021/11/14 05:42:38;;;;;;;12.77;7.83;;;7.80;99.90;;;;;;4149817;28;20482;-83
2021/11/14 05:44:39;;;;;;;14.50;8.57;;;7.80;99.90;;;;;;4149096;28;20886;-83
2021/11/14 05:46:41;;;;;;;14.50;8.17;;;7.80;99.90;;;;;;4147880;28;20461;-83
2021/11/14 05:48:43;;;;;;;15.30;8.93;;;8.20;99.90;;;;;;4147753;28;20900;-83
2021/11/14 05:50:45;;;;;;;14.93;8.50;;;7.80;99.90;;;;;;4148346;28;20470;-83
2021/11/14 05:52:48;;;;;;;13.27;8.63;;;7.80;99.90;;;;;;4149474;28;20516;-83
2021/11/14 05:54:50;;;;;;;14.77;8.97;;;7.80;99.90;;;;;;4150429;28;20536;-83
2021/11/14 05:56:52;;;;;;;15.03;8.30;;;7.80;99.90;;;;;;4150856;28;20517;-83
2021/11/14 05:58:57;;;;;;;15.43;8.80;;;7.80;99.90;;;;;;4151087;28;20508;-83
2021/11/14 06:01:08;;;;;;;16.93;9.40;;;7.80;99.90;;;;;;4150259;28;20478;-83
2021/11/14 06:03:19;;;;;;;13.50;8.17;;;7.80;99.90;;;;;;4150579;28;20893;-83
2021/11/14 06:05:24;;;;;;;14.73;8.43;;;7.80;99.90;;;;;;4149319;28;20524;-83
2021/11/14 06:07:29;;;;;;;14.00;7.77;;;7.80;99.90;;;;;;4148797;28;20470;-83
2021/11/14 06:09:32;;;;;;;13.73;8.43;;;7.80;99.90;;;;;;4148794;28;20834;-83
2021/11/14 06:11:34;;;;;;;16.17;8.93;;;7.80;99.90;;;;;;4149266;28;20547;-83
2021/11/14 06:13:36;;;;;;;14.37;8.57;;;7.80;99.90;;;;;;4148095;28;20545;-83
2021/11/14 06:15:38;;;;;;;12.90;8.03;;;7.80;99.90;;;;;;4147972;28;20458;-83
2021/11/14 06:17:39;;;;;;;13.03;7.83;;;7.80;99.90;;;;;;4147226;28;21077;-83
2021/11/14 06:19:41;;;;;;;12.37;7.80;;;7.80;99.90;;;;;;4148546;28;20501;-83
2021/11/14 06:21:43;;;;;;;13.40;8.33;;;7.80;99.90;;;;;;4148145;28;20466;-83
2021/11/14 06:23:44;;;;;;;13.80;8.10;;;7.80;99.90;;;;;;4149179;28;20474;-83
2021/11/14 06:25:48;;;;;;;12.53;8.00;;;7.80;99.90;;;;;;4148339;28;20442;-83
2021/11/14 06:27:50;;;;;;;14.27;8.23;;;8.50;99.90;;;;;;4149271;28;20454;-82
2021/11/14 06:29:51;;;;;;;14.93;8.30;;;7.80;99.90;;;;;;4153934;28;20463;-83
2021/11/14 06:31:53;;;;;;;14.83;8.37;;;7.80;99.90;;;;;;4160550;28;21148;-83
2021/11/14 06:33:55;;;;;;;11.77;7.77;;;7.80;99.90;;;;;;4147414;28;20545;-83
2021/11/14 06:35:57;;;;;;;14.77;8.37;;;7.80;99.90;;;;;;4148325;28;20473;-83
2021/11/14 06:37:59;;;;;;;13.00;7.70;;;7.80;99.90;;;;;;4148199;28;20883;-83
2021/11/14 06:40:00;;;;;;;14.27;8.57;;;7.80;99.90;;;;;;4147983;28;20496;-83
2021/11/14 06:42:04;;;;;;;13.67;8.23;;;7.80;99.90;;;;;;4148339;28;20485;-83
2021/11/14 06:44:05;;;;;;;14.40;7.67;;;7.80;99.90;;;;;;4148280;28;20513;-83
2021/11/14 06:46:07;;;;;;;12.63;8.03;;;7.80;99.90;;;;;;4147460;28;21001;-83
2021/11/14 06:48:09;;;;;;;14.03;8.20;;;7.80;99.90;;;;;;4147313;28;20470;-83
2021/11/14 06:50:12;;;;;;;15.17;8.43;;;7.80;99.90;;;;;;4149951;28;20478;-83
2021/11/14 06:52:14;;;;;;;15.80;8.73;;;7.80;99.90;;;;;;4155226;28;20486;-83
2021/11/14 06:54:16;;;;;;;15.80;8.27;;;7.80;99.90;;;;;;4150929;28;20477;-83
2021/11/14 06:56:18;;;;;;;14.97;8.53;;;7.80;99.90;;;;;;4147119;28;20885;-83
2021/11/14 06:58:21;;;;;;;15.33;9.17;;;7.80;99.90;;;;;;4145777;28;20543;-83
2021/11/14 07:00:25;;;;;;;17.10;9.27;;;7.80;99.90;;;;;;4146751;28;20512;-83
2021/11/14 07:02:27;;;;;;;15.53;8.73;;;7.80;99.90;;;;;;4147221;28;20539;-83
2021/11/14 07:04:28;;;;;;;15.50;9.07;;;7.80;99.90;;;;;;4147166;28;20509;-83
2021/11/14 07:06:30;;;;;;;16.13;9.47;;;7.90;99.90;;;;;;4147852;28;20455;-83
2021/11/14 07:08:32;;;;;;;17.27;9.47;;;7.90;99.90;;;;;;4148025;28;20832;-83
2021/11/14 07:10:34;;;;;;;16.67;9.43;;;7.90;99.90;;;;;;4147474;28;20461;-82
2021/11/14 07:12:36;;;;;;;17.20;9.47;;;7.90;99.90;;;;;;4147833;28;20509;-83
2021/11/14 07:14:39;;;;;;;16.33;9.80;;;7.90;99.90;;;;;;4147752;28;20513;-83
2021/11/14 07:16:41;;;;;;;16.83;9.73;;;7.90;99.90;;;;;;4139906;28;21018;-83
2021/11/14 07:18:43;;;;;;;15.80;9.33;;;7.90;99.90;;;;;;4138982;28;20474;-82
2021/11/14 07:20:45;;;;;;;15.17;9.20;;;8.00;99.90;;;;;;4148034;28;20554;-83
2021/11/14 07:22:47;;;;;;;16.60;8.93;;;7.90;99.90;;;;;;4148069;28;20485;-83
2021/11/14 07:24:49;;;;;;;14.07;8.83;;;8.20;99.90;;;;;;4147563;28;20536;-83
2021/11/14 07:26:50;;;;;;;14.40;8.73;;;8.00;99.90;;;;;;4148085;28;20466;-83
2021/11/14 07:28:53;;;;;;;14.83;9.37;;;8.00;99.90;;;;;;4145166;28;20508;-83
2021/11/14 07:30:56;;;;;;;15.37;8.87;;;8.00;99.90;;;;;;4153914;28;20462;-83
2021/11/14 07:32:58;;;;;;;15.00;9.00;;;8.00;99.90;;;;;;4149877;28;20501;-83
2021/11/14 07:35:00;;;;;;;13.40;8.77;;;8.10;99.90;;;;;;4147412;28;20529;-83
2021/11/14 07:37:01;;;;;;;16.17;9.07;;;8.00;99.90;;;;;;4148229;28;20843;-83
2021/11/14 07:39:04;;;;;;;14.87;8.77;;;8.00;99.90;;;;;;4152297;28;21001;-83
2021/11/14 07:41:05;;;;;;;14.83;9.63;;;8.10;99.90;;;;;;4156677;28;20463;-83
2021/11/14 07:43:08;;;;;;;16.27;9.73;;;8.10;99.90;;;;;;4148927;28;20537;-83
2021/11/14 07:45:10;;;;;;;15.57;9.67;;;8.10;99.90;;;;;;4147762;28;20462;-83
2021/11/14 07:47:13;;;;;;;15.07;8.77;;;8.10;99.90;;;;;;4143118;28;20458;-83
2021/11/14 07:49:15;;;;;;;16.30;9.33;;;8.10;99.90;;;;;;4146799;28;20474;-82
2021/11/14 07:51:17;;;;;;;21.60;11.80;;;8.10;99.90;;;;;;4157513;28;20841;-83
2021/11/14 07:53:19;;;;;;;25.87;13.87;;;8.20;99.90;;;;;;4159434;28;20493;-83
2021/11/14 07:55:21;;;;;;;23.40;14.13;;;8.20;99.90;;;;;;4155201;28;20467;-83
2021/11/14 07:57:23;;;;;;;23.63;13.50;;;8.20;99.90;;;;;;4147572;28;20451;-83
2021/11/14 07:59:26;;;;;;;21.53;12.87;;;8.20;99.90;;;;;;4146959;28;21026;-83
2021/11/14 08:01:28;;;;;;;21.90;12.80;;;9.30;99.90;;;;;;4146801;28;20505;-80
2021/11/14 08:03:32;;;;;;;19.67;12.40;;;8.30;99.90;;;;;;4141559;28;20980;-80
2021/11/14 08:05:34;;;;;;;19.00;11.73;;;8.30;99.90;;;;;;4147119;28;20466;-80
2021/11/14 08:07:36;;;;;;;17.67;11.07;;;8.30;99.90;;;;;;4146573;28;21024;-79
2021/11/14 08:09:38;;;;;;;17.17;10.53;;;8.30;99.90;;;;;;4145014;28;20537;-81
2021/11/14 08:11:40;;;;;;;15.90;9.97;;;8.30;99.90;;;;;;4146472;28;20478;-82
2021/11/14 08:13:42;;;;;;;17.03;10.27;;;8.30;99.90;;;;;;4179386;23;20486;-79
2021/11/14 08:15:43;;;;;;;17.07;10.53;;;8.30;99.90;;;;;;4162309;28;20470;-79
2021/11/14 08:17:45;;;;;;;18.87;10.57;;;8.30;99.90;;;;;;4165226;28;20511;-79
2021/11/14 08:19:48;;;;;;;15.17;9.73;;;8.30;99.90;;;;;;4165146;28;20466;-80
2021/11/14 08:21:50;;;;;;;19.57;10.50;;;8.30;99.90;;;;;;4163465;28;20512;-79
2021/11/14 08:23:52;;;;;;;17.50;9.90;;;8.40;99.90;;;;;;4156589;28;20851;-80
2021/11/14 08:25:54;;;;;;;17.83;9.73;;;8.40;99.90;;;;;;4148903;28;20455;-79
2021/11/14 08:27:56;;;;;;;17.90;10.10;;;8.40;99.90;;;;;;4150198;28;20812;-79
2021/11/14 08:29:58;;;;;;;16.53;10.17;;;8.40;99.90;;;;;;4148467;28;20454;-79
2021/11/14 08:32:00;;;;;;;17.40;10.20;;;8.40;99.90;;;;;;4152092;28;21002;-79
2021/11/14 08:34:02;;;;;;;15.83;9.43;;;8.40;99.90;;;;;;4161977;28;20498;-79
2021/11/14 08:36:05;;;;;;;16.53;10.17;;;8.50;99.90;;;;;;4157415;28;20489;-79
2021/11/14 08:38:08;;;;;;;18.40;10.27;;;8.50;99.90;;;;;;4146970;28;20471;-79
2021/11/14 08:40:11;;;;;;;16.43;9.73;;;8.50;99.90;;;;;;4135513;28;20463;-79
2021/11/14 08:42:13;;;;;;;15.80;9.70;;;8.60;99.90;;;;;;4167500;28;20211;-79
2021/11/14 08:44:14;;;;;;;15.37;9.90;;;8.60;99.90;;;;;;4168146;28;20481;-79
2021/11/14 08:46:16;;;;;;;17.33;9.97;;;8.70;99.90;;;;;;4155461;28;20548;-80
2021/11/14 08:48:18;;;;;;;18.57;11.10;;;8.70;99.90;;;;;;4146784;28;20262;-79
2021/11/14 08:50:21;;;;;;;16.60;10.23;;;8.80;99.90;;;;;;4150640;28;20463;-79
2021/11/14 08:52:25;;;;;;;18.47;9.87;;;8.80;99.90;;;;;;4150681;28;20517;-79
2021/11/14 08:54:27;;;;;;;15.53;9.73;;;8.90;99.90;;;;;;4150349;28;20653;-79
2021/11/14 08:56:29;;;;;;;15.93;9.67;;;8.90;99.90;;;;;;4138565;28;20208;-80
2021/11/14 08:58:33;;;;;;;15.83;10.07;;;9.00;99.90;;;;;;4156788;28;20266;-79
2021/11/14 09:00:34;;;;;;;15.53;10.07;;;9.00;99.90;;;;;;4149856;28;20270;-80
2021/11/14 09:02:36;;;;;;;18.10;11.37;;;9.00;99.90;;;;;;4153537;28;20705;-80
2021/11/14 09:04:38;;;;;;;18.53;11.20;;;9.00;99.90;;;;;;4154137;28;20208;-79
2021/11/14 09:06:40;;;;;;;17.07;11.00;;;9.10;99.90;;;;;;4145299;28;20725;-79
2021/11/14 09:08:43;;;;;;;20.23;12.17;;;9.10;99.90;;;;;;4151023;28;20584;-79
2021/11/14 09:10:45;;;;;;;19.07;11.17;;;9.10;99.90;;;;;;4153713;28;20212;-79
2021/11/14 09:12:47;;;;;;;19.43;11.73;;;9.10;99.90;;;;;;4151221;28;20236;-79
2021/11/14 09:14:49;;;;;;;20.03;11.27;;;9.10;99.90;;;;;;4150153;28;20239;-78
2021/11/14 09:16:52;;;;;;;20.20;11.43;;;9.10;99.90;;;;;;4150681;28;20209;-79
2021/11/14 09:18:55;;;;;;;19.20;11.13;;;9.10;99.90;;;;;;4147799;28;20223;-78
2021/11/14 09:20:58;;;;;;;20.80;11.90;;;9.20;99.90;;;;;;4142348;28;20217;-78
2021/11/14 09:22:59;;;;;;;16.83;10.83;;;9.20;99.90;;;;;;4145755;28;20251;-78
2021/11/14 09:25:03;;;;;;;18.57;11.13;;;9.20;99.90;;;;;;4146958;28;20209;-78
2021/11/14 09:27:06;;;;;;;17.47;11.17;;;9.20;99.90;;;;;;4146420;28;20205;-78
2021/11/14 09:29:12;;;;;;;19.57;11.57;;;9.20;99.90;;;;;;4145586;28;20209;-78
2021/11/14 09:31:14;;;;;;;22.17;12.20;;;9.30;99.90;;;;;;4142743;28;20267;-79
2021/11/14 09:33:17;;;;;;;19.43;11.20;;;9.30;99.90;;;;;;4141945;28;20302;-79
2021/11/14 09:35:19;;;;;;;22.03;12.13;;;9.30;99.90;;;;;;4143397;28;20209;-79
2021/11/14 09:37:21;;;;;;;21.83;11.83;;;9.30;99.90;;;;;;4139246;28;20219;-79
2021/11/14 09:39:23;;;;;;;21.77;12.23;;;9.30;99.90;;;;;;4142869;28;20634;-79
2021/11/14 09:41:26;;;;;;;21.20;12.43;;;9.40;99.90;;;;;;4145423;28;20214;-79
2021/11/14 09:43:28;;;;;;;21.83;12.57;;;9.40;99.90;;;;;;4139149;28;20755;-79
2021/11/14 09:45:32;;;;;;;22.60;12.93;;;9.40;99.90;;;;;;4144659;28;20212;-79
2021/11/14 09:47:34;;;;;;;23.07;12.93;;;9.40;99.90;;;;;;4148854;28;20564;-79
2021/11/14 09:49:36;;;;;;;27.37;14.43;;;9.40;99.90;;;;;;4145258;28;20214;-78
2021/11/14 09:51:38;;;;;;;33.00;16.67;;;9.50;99.90;;;;;;4144157;28;20213;-79
2021/11/14 09:53:40;;;;;;;32.77;17.47;;;9.50;99.90;;;;;;4144510;28;20680;-79
2021/11/14 09:55:41;;;;;;;29.03;16.33;;;9.50;99.90;;;;;;4149700;28;20208;-79
2021/11/14 09:57:45;;;;;;;30.00;15.70;;;9.50;99.90;;;;;;4145119;28;20208;-78
2021/11/14 09:59:47;;;;;;;27.37;14.80;;;9.50;99.90;;;;;;4145044;28;20553;-78
2021/11/14 10:01:49;;;;;;;27.80;14.70;;;9.60;99.90;;;;;;4140934;28;20219;-79
2021/11/14 10:03:51;;;;;;;25.33;13.97;;;9.60;99.90;;;;;;4148274;28;20229;-79
2021/11/14 10:05:53;;;;;;;24.20;12.73;;;9.60;99.90;;;;;;4153688;28;20684;-79
2021/11/14 10:07:56;;;;;;;22.73;12.80;;;9.60;99.90;;;;;;4146472;28;20665;-79
2021/11/14 10:09:59;;;;;;;23.67;12.90;;;9.60;99.90;;;;;;4146031;28;20217;-80
2021/11/14 10:12:12;;;;;;;20.20;11.57;;;9.60;99.90;;;;;;4144440;28;20236;-78
2021/11/14 10:14:22;;;;;;;20.13;12.07;;;9.70;99.90;;;;;;4146953;28;20307;-79
2021/11/14 10:16:26;;;;;;;20.33;12.37;;;9.70;99.90;;;;;;4148427;28;20728;-78
2021/11/14 10:18:28;;;;;;;22.03;12.13;;;9.70;99.90;;;;;;4131357;28;20333;-78
2021/11/14 10:20:32;;;;;;;22.10;13.03;;;9.70;99.90;;;;;;4143717;28;20221;-78
2021/11/14 10:22:36;;;;;;;23.13;12.47;;;9.70;99.90;;;;;;4147098;28;20213;-78
2021/11/14 10:24:39;;;;;;;22.93;12.30;;;9.70;99.90;;;;;;4147704;28;20210;-78
2021/11/14 10:26:40;;;;;;;25.23;13.07;;;9.80;99.90;;;;;;4144300;28;20640;-80
2021/11/14 10:28:45;;;;;;;20.57;12.20;;;9.70;99.90;;;;;;4143808;28;20208;-79
2021/11/14 10:30:49;;;;;;;22.93;13.40;;;9.70;99.90;;;;;;4144672;28;20281;-78
2021/11/14 10:32:51;;;;;;;21.67;12.57;;;9.80;99.90;;;;;;4149012;28;20236;-79
2021/11/14 10:34:58;;;;;;;22.27;12.63;;;9.80;99.90;;;;;;4154125;28;20204;-80
2021/11/14 10:37:00;;;;;;;21.33;12.50;;;9.80;99.90;;;;;;4151327;28;20577;-79
2021/11/14 10:39:05;;;;;;;22.50;12.93;;;9.80;99.90;;;;;;4162027;28;20216;-79